Météo Nord-Pas-de-Calais   La météo au plus près de chez vous

Station météorologique

Observations météo à St Vaast La Hougue (50562)

50562001 17 m Dernier relevé à 15:36
19.6°C
Vent 7.2 km/h

Journée consultée

Mardi 1 Septembre 2026

Synthèse de la journée

Périodes de référence en UTC

Température maximale

21.6°C

à 14:00

06h 06h

Température minimale

13.4°C

à 07:42

18h 18h

Rafale maximale

27 km/h

à 10:18

00h 00h

Précipitations

0 mm

Cumul quotidien

06h 06h

Graphiques de la journée

Heure locale Réduire

Données détaillées

Relevés météo

Pas de 6 minutes Afficher les relevés infra-horaires
Relevés météo détaillés à St Vaast La Hougue pour le Mardi 1 Septembre 2026
Heure Température °C Vent moyen (raf.), km/h Précipitations mm
15:36 19.6 °C 14 km/h (19 km/h) 0 mm0 mm
15:30 19.1 °C 14 km/h (21 km/h) 0 mm0 mm
15:24 19.1 °C 15 km/h (21 km/h) 0 mm0 mm
15:18 18.8 °C 17 km/h (22 km/h) 0 mm0 mm
15:12 19.2 °C 14 km/h (22 km/h) 0 mm0 mm
15:06 19.3 °C 11 km/h (17 km/h) 0 mm0 mm
15:00 19.2 °C 9 km/h (17 km/h) 0 mm0 mm
14:54 19.1 °C 7 km/h (11 km/h) 0 mm0 mm
14:48 19 °C 9 km/h (13 km/h) 0 mm0 mm
14:42 19.1 °C 11 km/h (16 km/h) 0 mm0 mm
14:36 19.8 °C 7 km/h (16 km/h) 0 mm0 mm
14:30 20 °C 5 km/h (11 km/h) 0 mm0 mm
14:24 20.3 °C 5 km/h (10 km/h) 0 mm0 mm
14:18 20.1 °C 8 km/h (18 km/h) 0 mm0 mm
14:12 19.7 °C 9 km/h (18 km/h) 0 mm0 mm
14:06 19.5 °C 12 km/h (15 km/h) 0 mm0 mm
14:00 19.6 °C 14 km/h (19 km/h) 0 mm0 mm
13:54 19.7 °C 12 km/h (19 km/h) 0 mm0 mm
13:48 20.3 °C 9 km/h (18 km/h) 0 mm0 mm
13:42 20.5 °C 8 km/h (11 km/h) 0 mm0 mm
13:36 20.3 °C 10 km/h (13 km/h) 0 mm0 mm
13:30 19.8 °C 9 km/h (13 km/h) 0 mm0 mm
13:24 19.5 °C 12 km/h (19 km/h) 0 mm0 mm
13:18 19.6 °C 10 km/h (19 km/h) 0 mm0 mm
13:12 20.6 °C 4 km/h (9 km/h) 0 mm0 mm
13:06 21.4 °C 3 km/h (7 km/h) 0 mm0 mm
13:00 21.1 °C 4 km/h (8 km/h) 0 mm0 mm
12:54 20.3 °C 8 km/h (13 km/h) 0 mm0 mm
12:48 19.6 °C 12 km/h (18 km/h) 0 mm0 mm
12:42 20.1 °C 9 km/h (18 km/h) 0 mm0 mm
12:36 20.9 °C 7 km/h (12 km/h) 0 mm0 mm
12:30 20.3 °C 8 km/h (12 km/h) 0 mm0 mm
12:24 20.2 °C 11 km/h (21 km/h) 0 mm0 mm
12:18 19.6 °C 15 km/h (21 km/h) 0 mm0 mm
12:12 19.8 °C 15 km/h (24 km/h) 0 mm0 mm
12:06 19.9 °C 13 km/h (24 km/h) 0 mm0 mm
12:00 19.5 °C 11 km/h (18 km/h) 0 mm0 mm
11:54 19.5 °C 11 km/h (19 km/h) 0 mm0 mm
11:48 19.4 °C 14 km/h (21 km/h) 0 mm0 mm
11:42 19.6 °C 15 km/h (23 km/h) 0 mm0 mm
11:36 19.5 °C 15 km/h (23 km/h) 0 mm0 mm
11:30 19.1 °C 16 km/h (21 km/h) 0 mm0 mm
11:24 19.2 °C 17 km/h (23 km/h) 0 mm0 mm
11:18 18.9 °C 15 km/h (23 km/h) 0 mm0 mm
11:12 19 °C 16 km/h (25 km/h) 0 mm0 mm
11:06 18.8 °C 14 km/h (25 km/h) 0 mm0 mm
11:00 18.9 °C 14 km/h (20 km/h) 0 mm0 mm
10:54 18.8 °C 17 km/h (21 km/h) 0 mm0 mm
10:48 18.6 °C 17 km/h (22 km/h) 0 mm0 mm
10:42 18.5 °C 18 km/h (23 km/h) 0 mm0 mm
10:36 18.3 °C 20 km/h (27 km/h) 0 mm0 mm
10:30 18.3 °C 23 km/h (27 km/h) 0 mm0 mm
10:24 18.1 °C 21 km/h (27 km/h) 0 mm0 mm
10:18 17.8 °C 18 km/h (27 km/h) 0 mm0 mm
10:12 17.7 °C 17 km/h (21 km/h) 0 mm0 mm
10:06 17.5 °C 18 km/h (21 km/h) 0 mm0 mm
10:00 17.3 °C 18 km/h (23 km/h) 0 mm0 mm
09:54 17.4 °C 18 km/h (23 km/h) 0 mm0 mm
09:48 17.1 °C 17 km/h (20 km/h) 0 mm0 mm
09:42 17 °C 17 km/h (19 km/h) 0 mm0 mm
09:36 16.8 °C 16 km/h (18 km/h) 0 mm0 mm
09:30 16.6 °C 16 km/h (18 km/h) 0 mm0 mm
09:24 16.4 °C 15 km/h (19 km/h) 0 mm0 mm
09:18 16.4 °C 14 km/h (17 km/h) 0 mm0 mm
09:12 16.2 °C 14 km/h (17 km/h) 0 mm0 mm
09:06 16.1 °C 12 km/h (17 km/h) 0 mm0 mm
09:00 15.9 °C 12 km/h (14 km/h) 0 mm0 mm
08:54 15.6 °C 11 km/h (14 km/h) 0 mm0 mm
08:48 15.3 °C 10 km/h (12 km/h) 0 mm0 mm
08:42 15 °C 10 km/h (12 km/h) 0 mm0 mm
08:36 14.7 °C 9 km/h (12 km/h) 0 mm0 mm
08:30 14.4 °C 6 km/h (10 km/h) 0 mm0 mm
08:24 14.3 °C 6 km/h (9 km/h) 0 mm0 mm
08:18 14.3 °C 7 km/h (9 km/h) 0 mm0 mm
08:12 14.2 °C 6 km/h (9 km/h) 0 mm0 mm
08:06 14.2 °C 6 km/h (9 km/h) 0 mm0 mm
08:00 13.9 °C 8 km/h (11 km/h) 0 mm0 mm
07:54 13.6 °C 7 km/h (11 km/h) 0 mm0 mm
07:48 13.4 °C 6 km/h (8 km/h) 0 mm0 mm
07:42 13.4 °C 7 km/h (11 km/h) 0 mm0 mm
07:36 13.5 °C 8 km/h (11 km/h) 0 mm0 mm
07:30 13.6 °C 7 km/h (10 km/h) 0 mm0 mm
07:24 13.6 °C 7 km/h (9 km/h) 0 mm0 mm
07:18 13.5 °C 7 km/h (9 km/h) 0 mm0 mm
07:12 13.5 °C 7 km/h (10 km/h) 0 mm0 mm
07:06 13.6 °C 7 km/h (10 km/h) 0 mm0 mm
07:00 13.6 °C 8 km/h (12 km/h) 0 mm0 mm
06:54 13.6 °C 9 km/h (12 km/h) 0 mm0 mm
06:48 13.6 °C 8 km/h (12 km/h) 0 mm0 mm
06:42 13.7 °C 7 km/h (11 km/h) 0 mm0 mm
06:36 13.8 °C 7 km/h (11 km/h) 0 mm0 mm
06:30 14 °C 7 km/h (11 km/h) 0 mm0 mm
06:24 14 °C 8 km/h (14 km/h) 0 mm0 mm
06:18 14.2 °C 12 km/h (16 km/h) 0 mm0 mm
06:12 14.3 °C 12 km/h (16 km/h) 0 mm0 mm
06:06 14.3 °C 10 km/h (15 km/h) 0 mm0 mm
06:00 14.3 °C 12 km/h (15 km/h) 0 mm0 mm
05:54 14.4 °C 14 km/h (17 km/h) 0 mm0 mm
05:48 14.5 °C 13 km/h (16 km/h) 0 mm0 mm
05:42 14.5 °C 14 km/h (17 km/h) 0 mm0 mm
05:36 14.8 °C 15 km/h (18 km/h) 0 mm0 mm
05:30 14.7 °C 15 km/h (18 km/h) 0 mm0 mm
05:24 14.6 °C 14 km/h (17 km/h) 0 mm0 mm
05:18 14.6 °C 12 km/h (16 km/h) 0 mm0 mm
05:12 14.6 °C 13 km/h (17 km/h) 0 mm0 mm
05:06 14.6 °C 14 km/h (17 km/h) 0 mm0 mm
05:00 14.8 °C 13 km/h (16 km/h) 0 mm0 mm
04:54 15 °C 13 km/h (16 km/h) 0 mm0 mm
04:48 15 °C 13 km/h (17 km/h) 0 mm0 mm
04:42 15.1 °C 13 km/h (17 km/h) 0 mm0 mm
04:36 15.1 °C 13 km/h (15 km/h) 0 mm0 mm
04:30 15 °C 13 km/h (15 km/h) 0 mm0 mm
04:24 15.2 °C 13 km/h (17 km/h) 0 mm0 mm
04:18 15.3 °C 15 km/h (19 km/h) 0 mm0 mm
04:12 15.4 °C 15 km/h (19 km/h) 0 mm0 mm
04:06 15.3 °C 16 km/h (19 km/h) 0 mm0 mm
04:00 15.3 °C 15 km/h (18 km/h) 0 mm0 mm
03:54 15.5 °C 15 km/h (18 km/h) 0 mm0 mm
03:48 15.4 °C 15 km/h (18 km/h) 0 mm0 mm
03:42 15.5 °C 15 km/h (18 km/h) 0 mm0 mm
03:36 15.4 °C 17 km/h (21 km/h) 0 mm0 mm
03:30 15.5 °C 17 km/h (21 km/h) 0 mm0 mm
03:24 15.5 °C 17 km/h (20 km/h) 0 mm0 mm
03:18 15.5 °C 17 km/h (19 km/h) 0 mm0 mm
03:12 15.5 °C 16 km/h (19 km/h) 0 mm0 mm
03:06 15.4 °C 16 km/h (19 km/h) 0 mm0 mm
03:00 15.4 °C 17 km/h (19 km/h) 0 mm0 mm
02:54 15.4 °C 16 km/h (19 km/h) 0 mm0 mm
02:48 15.5 °C 16 km/h (19 km/h) 0 mm0 mm
02:42 15.5 °C 17 km/h (19 km/h) 0 mm0 mm
02:36 15.6 °C 17 km/h (20 km/h) 0 mm0 mm
02:30 15.5 °C 17 km/h (20 km/h) 0 mm0 mm
02:24 15.4 °C 17 km/h (19 km/h) 0 mm0 mm
02:18 15.4 °C 17 km/h (19 km/h) 0 mm0 mm
02:12 15.4 °C 18 km/h (20 km/h) 0 mm0 mm
02:06 15.4 °C 19 km/h (22 km/h) 0 mm0 mm
02:00 15.5 °C 20 km/h (23 km/h) 0 mm0 mm
01:54 15.6 °C 19 km/h (22 km/h) 0 mm0 mm
01:48 15.5 °C 18 km/h (21 km/h) 0 mm0 mm
01:42 15.6 °C 18 km/h (21 km/h) 0 mm0 mm
01:36 15.4 °C 18 km/h (22 km/h) 0 mm0 mm
01:30 15.6 °C 19 km/h (22 km/h) 0 mm0 mm
01:24 15.8 °C 17 km/h (22 km/h) 0 mm0 mm
01:18 15.9 °C 15 km/h (18 km/h) 0 mm0 mm
01:12 15.6 °C 15 km/h (17 km/h) 0 mm0 mm
01:06 15.7 °C 15 km/h (17 km/h) 0 mm0 mm
01:00 15.7 °C 15 km/h (19 km/h) 0 mm0 mm
00:54 15.8 °C 17 km/h (19 km/h) 0 mm0 mm
00:48 15.8 °C 16 km/h (19 km/h) 0 mm0 mm
00:42 15.9 °C 15 km/h (19 km/h) 0 mm0 mm
00:36 15.9 °C 14 km/h (17 km/h) 0 mm0 mm
00:30 16 °C 15 km/h (18 km/h) 0 mm0 mm
00:24 16.1 °C 15 km/h (18 km/h) 0 mm0 mm
00:18 16.1 °C 15 km/h (18 km/h) 0 mm0 mm
00:12 16.2 °C 15 km/h (18 km/h) 0 mm0 mm
00:06 16.4 °C 15 km/h (18 km/h) 0 mm0 mm
00:00 16.4 °C 16 km/h (18 km/h) 0 mm0 mm

Données via Météo-France

Relevés météo à St Vaast La Hougue

Cette page rassemble les observations de la station de St Vaast La Hougue : température, humidité, vent, précipitations et pression atmosphérique. Les graphiques facilitent le suivi de la journée, tandis que le tableau donne accès aux mesures horaires et infra-horaires disponibles.

Pour replacer ces mesures dans leur contexte, consultez la climatologie de St Vaast La Hougue. Retrouvez aussi la carte des observations météo en temps réel.